Time;durP1;ratioP1;P1;durP2;ratioP2;P2;SDS_P1;SDS_P2;PMS_P1;PMS_P2;Temp;Humidity;BMP_temperature;BMP_pressure;BME280_temperature;BME280_humidity;BME280_pressure;Samples;Min_cycle;Max_cycle;Signal;HPM_P1;HPM_P2
2022/09/27 00:00:23;;;;;;;10.13;2.33;;;9.70;99.90;;;;;;5023136;28;20180;-80
2022/09/27 00:02:49;;;;;;;9.65;2.65;;;9.70;99.90;;;;;;5025182;28;20813;-81
2022/09/27 00:05:15;;;;;;;13.43;2.70;;;9.70;99.90;;;;;;5011361;28;20037;-80
2022/09/27 00:07:42;;;;;;;10.32;2.30;;;9.70;99.90;;;;;;5031754;28;20164;-80
2022/09/27 00:10:08;;;;;;;7.65;2.10;;;9.60;99.90;;;;;;4997211;28;20443;-80
2022/09/27 00:12:34;;;;;;;16.30;2.50;;;9.60;99.90;;;;;;5012897;28;20041;-80
2022/09/27 00:15:01;;;;;;;6.55;2.05;;;9.60;99.90;;;;;;5031456;28;20624;-79
2022/09/27 00:17:27;;;;;;;13.27;2.38;;;9.60;99.90;;;;;;5010554;28;20487;-81
2022/09/27 00:19:56;;;;;;;6.30;2.13;;;9.50;99.90;;;;;;5014243;28;20092;-80
2022/09/27 00:22:23;;;;;;;6.45;2.28;;;9.50;99.90;;;;;;5030636;28;20069;-80
2022/09/27 00:24:49;;;;;;;13.55;2.28;;;9.50;99.90;;;;;;5013114;28;20120;-80
2022/09/27 00:27:15;;;;;;;8.07;2.17;;;9.40;99.90;;;;;;5026181;28;20406;-80
2022/09/27 00:29:41;;;;;;;5.70;1.80;;;9.40;99.90;;;;;;5029432;28;20565;-81
2022/09/27 00:32:06;;;;;;;6.43;2.00;;;9.40;99.90;;;;;;5030580;28;20038;-82
2022/09/27 00:34:33;;;;;;;11.35;2.08;;;9.40;99.90;;;;;;4989077;28;20071;-81
2022/09/27 00:36:58;;;;;;;14.02;3.10;;;9.30;99.90;;;;;;5030662;28;20037;-81
2022/09/27 00:39:24;;;;;;;8.18;2.30;;;9.30;99.90;;;;;;5013851;28;20038;-82
2022/09/27 00:41:50;;;;;;;14.13;2.53;;;9.30;99.90;;;;;;5013529;28;20188;-81
2022/09/27 00:44:32;;;;;;;9.25;2.20;;;9.20;99.90;;;;;;5012928;28;20037;-81
2022/09/27 00:47:30;;;;;;;8.63;2.35;;;9.20;99.90;;;;;;5029923;28;20083;-80
2022/09/27 00:50:14;;;;;;;11.50;2.45;;;9.10;99.90;;;;;;5014430;28;20034;-81
2022/09/27 00:52:49;;;;;;;10.23;2.08;;;9.10;99.90;;;;;;5013866;28;20041;-81
2022/09/27 00:55:23;;;;;;;11.95;2.15;;;9.10;99.90;;;;;;5028613;28;20041;-81
2022/09/27 00:57:50;;;;;;;5.65;1.80;;;9.10;99.90;;;;;;5031144;28;20575;-81
2022/09/27 01:00:17;;;;;;;8.95;2.17;;;9.00;99.90;;;;;;5028088;28;20079;-81
2022/09/27 01:02:46;;;;;;;8.90;1.60;;;9.00;99.90;;;;;;5016037;28;20098;-81
2022/09/27 01:05:15;;;;;;;8.45;1.90;;;9.00;99.90;;;;;;5018231;28;20405;-81
2022/09/27 01:07:41;;;;;;;3.60;1.50;;;9.00;99.90;;;;;;5013382;28;20101;-81
2022/09/27 01:10:07;;;;;;;4.65;1.65;;;8.90;99.90;;;;;;5017469;28;20037;-80
2022/09/27 01:13:03;;;;;;;8.10;2.15;;;9.00;99.90;;;;;;5027044;28;20391;-81
2022/09/27 01:15:55;;;;;;;6.55;2.00;;;9.00;99.90;;;;;;5016653;28;20037;-81
2022/09/27 01:18:29;;;;;;;7.22;2.00;;;8.90;99.90;;;;;;5025200;28;20042;-80
2022/09/27 01:21:20;;;;;;;13.95;1.70;;;8.90;99.90;;;;;;4994066;28;20634;-81
2022/09/27 01:24:19;;;;;;;6.93;1.67;;;9.00;99.90;;;;;;4993994;28;20037;-80
2022/09/27 01:27:00;;;;;;;12.02;1.90;;;8.90;99.90;;;;;;5011991;28;20095;-81
2022/09/27 01:29:36;;;;;;;5.72;1.38;;;8.90;99.90;;;;;;5010524;28;20091;-81
2022/09/27 01:32:13;;;;;;;5.82;1.52;;;8.90;99.90;;;;;;5027571;28;20106;-79
2022/09/27 01:34:54;;;;;;;6.43;1.40;;;8.90;99.90;;;;;;5027814;28;20042;-81
2022/09/27 01:37:38;;;;;;;8.15;1.40;;;8.80;99.90;;;;;;5026556;28;20126;-80
2022/09/27 01:40:21;;;;;;;6.43;1.45;;;8.80;99.90;;;;;;4994540;28;20033;-80
2022/09/27 01:43:04;;;;;;;8.02;1.50;;;8.80;99.90;;;;;;4993480;28;20187;-81
2022/09/27 01:45:42;;;;;;;6.45;1.42;;;8.80;99.90;;;;;;5020324;28;21200;-80
2022/09/27 01:48:20;;;;;;;6.03;1.63;;;8.80;99.90;;;;;;5009336;28;20042;-80
2022/09/27 01:51:15;;;;;;;4.03;1.33;;;8.80;99.90;;;;;;5025029;28;20095;-81
2022/09/27 01:53:49;;;;;;;3.42;1.63;;;8.80;99.90;;;;;;5008534;28;20030;-80
2022/09/27 01:56:42;;;;;;;7.85;1.38;;;8.70;99.90;;;;;;5024444;28;20088;-81
2022/09/27 01:59:13;;;;;;;7.25;1.83;;;8.70;99.90;;;;;;5011748;28;20049;-80
2022/09/27 02:01:42;;;;;;;6.80;1.52;;;8.70;99.90;;;;;;5022111;28;20033;-82
2022/09/27 02:04:11;;;;;;;5.78;1.42;;;8.70;99.90;;;;;;5028499;28;20117;-81
2022/09/27 02:06:47;;;;;;;6.65;1.50;;;8.70;99.90;;;;;;5007414;28;20041;-80
2022/09/27 02:09:22;;;;;;;5.78;1.15;;;8.60;99.90;;;;;;5025149;28;20072;-80
2022/09/27 02:11:54;;;;;;;5.22;1.50;;;8.60;99.90;;;;;;5009266;28;20084;-82
2022/09/27 02:14:38;;;;;;;5.50;1.15;;;8.60;99.90;;;;;;5012475;28;20095;-80
2022/09/27 02:17:22;;;;;;;5.97;1.10;;;8.70;99.90;;;;;;5006586;28;20129;-80
2022/09/27 02:20:10;;;;;;;7.20;1.30;;;8.70;99.90;;;;;;5010827;28;20037;-81
2022/09/27 02:23:16;;;;;;;4.90;1.15;;;8.70;99.90;;;;;;5009302;28;20037;-82
2022/09/27 02:25:57;;;;;;;3.75;1.00;;;8.70;99.90;;;;;;5010294;28;20049;-80
2022/09/27 02:28:41;;;;;;;5.07;1.40;;;8.70;99.90;;;;;;5024949;28;20046;-84
2022/09/27 02:31:07;;;;;;;4.97;1.20;;;8.70;99.90;;;;;;5027109;28;20121;-82
2022/09/27 02:33:51;;;;;;;2.90;1.58;;;8.70;99.90;;;;;;5026884;28;20093;-82
2022/09/27 02:36:18;;;;;;;6.68;2.00;;;8.70;99.90;;;;;;5008268;28;20057;-81
2022/09/27 02:38:44;;;;;;;3.85;1.10;;;8.70;99.90;;;;;;5009843;28;20045;-80
2022/09/27 02:41:15;;;;;;;5.85;1.27;;;8.70;99.90;;;;;;5011589;28;20060;-82
2022/09/27 02:43:43;;;;;;;5.75;1.23;;;8.70;99.90;;;;;;4994005;28;20033;-80
2022/09/27 02:46:20;;;;;;;2.08;0.80;;;8.80;99.90;;;;;;4993951;28;20132;-84
2022/09/27 02:49:05;;;;;;;2.92;1.52;;;8.80;99.90;;;;;;5008765;28;20548;-80
2022/09/27 02:51:46;;;;;;;4.35;1.08;;;8.80;99.90;;;;;;5010602;28;20734;-80
2022/09/27 02:54:19;;;;;;;3.58;1.27;;;8.80;99.90;;;;;;5026327;28;20041;-80
2022/09/27 02:56:57;;;;;;;5.90;1.20;;;8.80;99.90;;;;;;5007040;28;20897;-81
2022/09/27 02:59:31;;;;;;;6.43;1.20;;;8.70;99.90;;;;;;5010089;28;20029;-80
2022/09/27 03:02:00;;;;;;;2.08;1.02;;;8.80;99.90;;;;;;4997008;28;20037;-81
2022/09/27 03:04:40;;;;;;;4.07;1.25;;;8.70;99.90;;;;;;5028810;28;20037;-80
2022/09/27 03:07:06;;;;;;;6.03;1.35;;;8.80;99.90;;;;;;5029042;28;20049;-83
2022/09/27 03:09:50;;;;;;;9.43;1.48;;;8.70;99.90;;;;;;5011436;28;20496;-80
2022/09/27 03:12:35;;;;;;;6.63;1.27;;;8.70;99.90;;;;;;5026673;28;20037;-80
2022/09/27 03:15:01;;;;;;;3.28;1.17;;;8.70;99.90;;;;;;5005623;28;20037;-81
2022/09/27 03:17:27;;;;;;;5.97;0.90;;;8.70;99.90;;;;;;5009190;28;20048;-85
2022/09/27 03:19:53;;;;;;;5.82;1.33;;;8.60;99.90;;;;;;5026158;28;20030;-78
2022/09/27 03:22:18;;;;;;;6.50;1.50;;;8.60;99.90;;;;;;4994734;28;20049;-82
2022/09/27 03:24:44;;;;;;;6.32;1.20;;;8.60;99.90;;;;;;5023918;28;20037;-82
2022/09/27 03:27:11;;;;;;;6.50;1.35;;;8.60;99.90;;;;;;4992164;28;20045;-81
2022/09/27 03:29:36;;;;;;;6.90;1.63;;;8.60;99.90;;;;;;5006706;28;20120;-80
2022/09/27 03:32:03;;;;;;;3.63;0.77;;;8.50;99.90;;;;;;4991651;28;20196;-80
2022/09/27 03:34:29;;;;;;;2.83;1.23;;;8.50;99.90;;;;;;5006287;28;20136;-80
2022/09/27 03:36:55;;;;;;;3.05;1.08;;;8.50;99.90;;;;;;5026781;28;20559;-83
2022/09/27 03:39:21;;;;;;;1.77;0.98;;;8.50;99.90;;;;;;5009392;28;20045;-80
2022/09/27 03:41:47;;;;;;;4.63;1.00;;;8.50;99.90;;;;;;5014779;28;20104;-80
2022/09/27 03:44:12;;;;;;;3.53;1.00;;;8.40;99.90;;;;;;4988282;28;20048;-80
2022/09/27 03:46:38;;;;;;;4.30;1.23;;;8.50;99.90;;;;;;4972718;28;20042;-81
2022/09/27 03:49:04;;;;;;;4.60;1.02;;;8.50;99.90;;;;;;4986390;28;20676;-79
2022/09/27 03:51:30;;;;;;;1.95;0.80;;;8.40;99.90;;;;;;4988531;28;20137;-80
2022/09/27 03:53:55;;;;;;;5.78;1.00;;;8.40;99.90;;;;;;4962792;28;20487;-80
2022/09/27 03:56:21;;;;;;;3.83;1.10;;;8.40;99.90;;;;;;4975273;28;20030;-80
2022/09/27 03:58:47;;;;;;;3.97;1.20;;;8.40;99.90;;;;;;5006315;28;20038;-79
2022/09/27 04:01:14;;;;;;;4.53;1.20;;;8.40;99.90;;;;;;5007412;28;20034;-80
2022/09/27 04:03:40;;;;;;;3.17;1.05;;;8.30;99.90;;;;;;4974377;28;20042;-81
2022/09/27 04:06:06;;;;;;;5.57;1.27;;;8.30;99.90;;;;;;4972937;28;20045;-80
2022/09/27 04:08:33;;;;;;;5.45;1.20;;;8.30;99.90;;;;;;4989298;28;20049;-80
2022/09/27 04:10:59;;;;;;;3.83;0.95;;;8.30;99.90;;;;;;4990907;28;20574;-83
2022/09/27 04:13:25;;;;;;;5.78;1.10;;;8.30;99.90;;;;;;4970913;28;20077;-79
2022/09/27 04:15:51;;;;;;;4.65;1.23;;;8.30;99.90;;;;;;4992402;28;20070;-81
2022/09/27 04:18:16;;;;;;;1.73;0.80;;;8.30;99.90;;;;;;5001056;28;20471;-80
2022/09/27 04:20:42;;;;;;;8.35;1.23;;;8.20;99.90;;;;;;4973014;28;20038;-80
2022/09/27 04:23:08;;;;;;;5.43;1.10;;;8.30;99.90;;;;;;4969035;28;20038;-80
2022/09/27 04:25:33;;;;;;;3.22;1.00;;;8.30;99.90;;;;;;4990609;28;20494;-80
2022/09/27 04:28:01;;;;;;;1.73;0.98;;;8.30;99.90;;;;;;4988832;28;20033;-80
2022/09/27 04:30:30;;;;;;;3.88;0.98;;;8.20;99.90;;;;;;5005490;28;20064;-80
2022/09/27 04:32:55;;;;;;;8.02;1.40;;;8.20;99.90;;;;;;4991722;28;20038;-81
2022/09/27 04:38:05;;;;;;;5.28;1.10;;;8.20;99.90;;;;;;5007543;28;20411;-80
2022/09/27 04:40:35;;;;;;;4.13;1.27;;;8.20;99.90;;;;;;5007241;28;20047;-81
2022/09/27 04:43:02;;;;;;;2.72;1.10;;;8.20;99.90;;;;;;5010555;28;20049;-82
2022/09/27 04:45:28;;;;;;;6.05;1.13;;;8.20;99.90;;;;;;5009433;28;20119;-80
2022/09/27 04:47:54;;;;;;;2.10;1.00;;;8.20;99.90;;;;;;4997097;28;20044;-79
2022/09/27 04:50:20;;;;;;;4.22;0.98;;;8.20;99.90;;;;;;5027694;28;20029;-80
2022/09/27 04:52:51;;;;;;;6.15;1.15;;;8.20;99.90;;;;;;5027934;28;20052;-81
2022/09/27 04:55:17;;;;;;;2.00;1.05;;;8.20;99.90;;;;;;5012702;28;20136;-80
2022/09/27 04:57:43;;;;;;;4.03;1.40;;;8.20;99.90;;;;;;5010699;28;20045;-80
2022/09/27 05:00:10;;;;;;;2.85;0.80;;;8.20;99.90;;;;;;4998229;28;20053;-80
2022/09/27 05:02:36;;;;;;;5.97;1.30;;;8.20;99.90;;;;;;5030110;28;20043;-81
2022/09/27 05:05:01;;;;;;;3.28;1.35;;;8.20;99.90;;;;;;5014061;28;20041;-81
2022/09/27 05:07:28;;;;;;;3.03;1.30;;;8.10;99.90;;;;;;5009444;28;20131;-81
2022/09/27 05:09:55;;;;;;;2.63;1.08;;;8.10;99.90;;;;;;5030112;28;20072;-81
2022/09/27 05:12:21;;;;;;;3.10;1.10;;;8.10;99.90;;;;;;5027343;28;20037;-80
2022/09/27 05:14:47;;;;;;;4.47;1.10;;;8.10;99.90;;;;;;5026925;28;20096;-81
2022/09/27 05:17:13;;;;;;;6.45;1.10;;;8.10;99.90;;;;;;5011473;28;20045;-81
2022/09/27 05:19:39;;;;;;;1.58;0.85;;;8.10;99.90;;;;;;5023628;28;20041;-80
2022/09/27 05:22:05;;;;;;;1.95;0.90;;;8.10;99.90;;;;;;5010602;28;20044;-80
2022/09/27 05:24:32;;;;;;;3.22;1.02;;;8.10;99.90;;;;;;5013774;28;20052;-80
2022/09/27 05:26:59;;;;;;;3.58;1.10;;;8.10;99.90;;;;;;5010620;28;20041;-80
2022/09/27 05:29:25;;;;;;;1.80;0.88;;;8.10;99.90;;;;;;5013866;28;20041;-80
2022/09/27 05:31:51;;;;;;;3.53;0.90;;;8.10;99.90;;;;;;5027559;28;20141;-80
2022/09/27 05:34:19;;;;;;;1.83;0.88;;;8.10;99.90;;;;;;5010081;28;20125;-80
2022/09/27 05:36:48;;;;;;;2.67;1.00;;;8.10;99.90;;;;;;5028999;28;20477;-80
2022/09/27 05:39:15;;;;;;;6.03;1.23;;;8.10;99.90;;;;;;5028627;28;20458;-80
2022/09/27 05:41:42;;;;;;;1.15;0.68;;;8.10;99.90;;;;;;4999259;28;20061;-79
2022/09/27 05:44:08;;;;;;;5.00;0.98;;;8.10;99.90;;;;;;4992105;28;20037;-80
2022/09/27 05:46:34;;;;;;;2.55;1.42;;;8.10;99.90;;;;;;4976213;28;20103;-80
2022/09/27 05:49:00;;;;;;;3.92;1.25;;;8.10;99.90;;;;;;4995643;28;20137;-80
2022/09/27 05:51:26;;;;;;;2.97;0.90;;;8.10;99.90;;;;;;4992882;28;20038;-80
2022/09/27 05:53:51;;;;;;;7.07;1.15;;;8.10;99.90;;;;;;4961023;28;20030;-80
2022/09/27 05:56:17;;;;;;;2.40;0.88;;;8.10;99.90;;;;;;4996275;28;20035;-81
2022/09/27 05:58:43;;;;;;;5.60;1.05;;;8.20;99.90;;;;;;5006064;28;20042;-80
2022/09/27 06:01:09;;;;;;;2.97;1.00;;;8.20;99.90;;;;;;5008867;28;20168;-80
2022/09/27 06:03:35;;;;;;;5.38;1.05;;;8.10;99.90;;;;;;4978398;28;20109;-80
2022/09/27 06:06:06;;;;;;;6.15;1.02;;;8.10;99.90;;;;;;4990367;28;20114;-80
2022/09/27 06:08:33;;;;;;;4.47;1.63;;;8.20;99.90;;;;;;5005360;28;20049;-80
2022/09/27 06:11:11;;;;;;;4.85;1.00;;;8.20;99.90;;;;;;4977199;28;20041;-81
2022/09/27 06:13:40;;;;;;;2.15;0.90;;;8.20;99.90;;;;;;4991154;28;20041;-80
2022/09/27 06:16:08;;;;;;;1.00;0.68;;;8.20;99.90;;;;;;5014870;28;20518;-80
2022/09/27 06:18:34;;;;;;;3.53;1.08;;;8.20;99.90;;;;;;5006364;28;20034;-80
2022/09/27 06:21:01;;;;;;;3.50;1.42;;;8.20;99.90;;;;;;5007846;28;20442;-81
2022/09/27 06:23:28;;;;;;;3.22;0.82;;;8.20;99.90;;;;;;5008085;28;20040;-81
2022/09/27 06:25:54;;;;;;;5.55;1.10;;;8.20;99.90;;;;;;5004448;28;20056;-80
2022/09/27 06:28:21;;;;;;;5.10;1.20;;;8.20;99.90;;;;;;4973818;28;20034;-80
2022/09/27 06:30:49;;;;;;;7.22;1.27;;;8.30;99.90;;;;;;5008303;28;20041;-80
2022/09/27 06:33:18;;;;;;;3.25;1.15;;;8.20;99.90;;;;;;5004739;28;20049;-79
2022/09/27 06:35:45;;;;;;;3.35;1.15;;;8.30;99.90;;;;;;4973751;28;20042;-80
2022/09/27 06:38:16;;;;;;;4.50;1.55;;;8.20;99.90;;;;;;5009853;28;20037;-80
2022/09/27 06:40:46;;;;;;;5.82;1.40;;;8.20;99.90;;;;;;5014712;28;20041;-81
2022/09/27 06:43:15;;;;;;;6.05;1.40;;;8.20;99.90;;;;;;4993013;28;20034;-81
2022/09/27 06:45:41;;;;;;;5.10;1.75;;;8.20;99.90;;;;;;4994899;28;20484;-81
2022/09/27 06:48:11;;;;;;;3.85;0.98;;;8.30;99.90;;;;;;5027383;28;20074;-82
2022/09/27 06:50:39;;;;;;;2.85;1.30;;;8.20;99.90;;;;;;5009875;28;20116;-81
2022/09/27 06:53:06;;;;;;;4.43;1.40;;;8.30;99.90;;;;;;5009786;28;20040;-81
2022/09/27 06:55:35;;;;;;;7.30;1.77;;;8.30;99.90;;;;;;5010715;28;20034;-81
2022/09/27 07:00:49;;;;;;;4.38;1.40;;;8.30;99.90;;;;;;5004752;28;20034;-81
2022/09/27 07:03:15;;;;;;;5.68;1.63;;;8.30;99.90;;;;;;5024215;28;20053;-81
2022/09/27 07:05:41;;;;;;;6.72;1.40;;;8.40;99.90;;;;;;4985790;28;20448;-80
2022/09/27 07:08:10;;;;;;;3.40;1.23;;;8.30;99.90;;;;;;4975339;28;20040;-80
2022/09/27 07:10:37;;;;;;;2.25;1.42;;;8.30;99.90;;;;;;4983122;28;20095;-81
2022/09/27 07:13:06;;;;;;;5.70;1.48;;;8.30;99.90;;;;;;4989455;28;20069;-79
2022/09/27 07:15:34;;;;;;;3.10;1.25;;;8.30;99.90;;;;;;5016675;28;20045;-80
2022/09/27 07:18:00;;;;;;;6.07;1.33;;;8.40;99.90;;;;;;5015160;28;20054;-80
2022/09/27 07:20:26;;;;;;;5.20;1.80;;;8.40;99.90;;;;;;4983002;28;20432;-80
2022/09/27 07:22:52;;;;;;;3.05;1.13;;;8.50;99.90;;;;;;4994623;28;20034;-80
2022/09/27 07:25:18;;;;;;;2.67;1.25;;;8.50;99.90;;;;;;5016725;28;20038;-81
2022/09/27 07:27:44;;;;;;;3.97;1.42;;;8.70;99.90;;;;;;5010063;28;20045;-81
2022/09/27 07:30:11;;;;;;;4.97;1.50;;;8.80;99.90;;;;;;5011747;28;20068;-80
2022/09/27 07:32:37;;;;;;;2.65;1.10;;;8.90;99.90;;;;;;4986764;28;20049;-80
2022/09/27 07:35:05;;;;;;;3.75;1.27;;;9.00;99.90;;;;;;4975140;28;20045;-80
2022/09/27 07:37:32;;;;;;;2.28;1.35;;;9.10;99.90;;;;;;5004078;28;20104;-81
2022/09/27 07:39:59;;;;;;;5.15;1.52;;;9.20;99.90;;;;;;5020769;28;20038;-82
2022/09/27 07:42:27;;;;;;;3.72;1.35;;;9.20;99.90;;;;;;5015681;28;20046;-80
2022/09/27 07:44:57;;;;;;;4.70;1.17;;;9.30;99.90;;;;;;5005148;28;20038;-81
2022/09/27 07:47:24;;;;;;;3.75;1.50;;;9.40;99.90;;;;;;4994642;28;20047;-83
2022/09/27 07:49:51;;;;;;;3.17;1.02;;;9.40;99.90;;;;;;5008392;28;20040;-80
2022/09/27 07:52:18;;;;;;;5.68;1.63;;;9.40;99.90;;;;;;5019315;28;20521;-80
2022/09/27 07:54:47;;;;;;;4.53;1.00;;;9.40;99.90;;;;;;5018251;28;20129;-81
2022/09/27 07:57:14;;;;;;;2.58;1.20;;;9.60;99.90;;;;;;5005635;28;20065;-80
2022/09/27 07:59:40;;;;;;;3.58;1.10;;;9.70;99.90;;;;;;5023889;28;20120;-81
2022/09/27 08:02:14;;;;;;;2.28;0.90;;;9.70;99.90;;;;;;5020423;28;20045;-80
2022/09/27 08:04:42;;;;;;;4.18;0.80;;;9.80;99.90;;;;;;5009018;28;20049;-80
2022/09/27 08:07:09;;;;;;;5.57;1.42;;;9.80;99.90;;;;;;5004624;28;20120;-79
2022/09/27 08:09:35;;;;;;;4.30;1.10;;;9.80;99.90;;;;;;4990688;28;20045;-80
2022/09/27 08:12:03;;;;;;;2.25;1.00;;;9.70;99.90;;;;;;5018893;28;20125;-79
2022/09/27 08:14:30;;;;;;;2.33;1.10;;;9.60;99.90;;;;;;5024738;28;20053;-80
2022/09/27 08:16:56;;;;;;;4.88;1.27;;;9.60;99.90;;;;;;4988879;28;20498;-81
2022/09/27 08:19:22;;;;;;;3.67;1.00;;;9.50;99.90;;;;;;5018456;28;20037;-81
2022/09/27 08:21:50;;;;;;;2.60;1.30;;;9.50;99.90;;;;;;5027829;28;20402;-81
2022/09/27 08:24:16;;;;;;;5.13;1.50;;;9.50;99.90;;;;;;5027354;28;20099;-80
2022/09/27 08:26:43;;;;;;;2.60;1.30;;;9.50;99.90;;;;;;5010108;28;20053;-81
2022/09/27 08:29:08;;;;;;;5.03;1.10;;;9.60;99.90;;;;;;5010344;28;20046;-78
2022/09/27 08:31:34;;;;;;;4.30;1.40;;;9.70;99.90;;;;;;5022342;28;20037;-81
2022/09/27 08:34:00;;;;;;;4.03;1.30;;;9.70;99.90;;;;;;5008816;28;20045;-80
2022/09/27 08:36:27;;;;;;;4.38;1.17;;;9.90;99.90;;;;;;5011345;28;20053;-80
2022/09/27 08:38:56;;;;;;;5.70;1.40;;;10.10;99.90;;;;;;4990310;28;20041;-80
2022/09/27 08:41:49;;;;;;;2.10;1.13;;;10.30;99.90;;;;;;4992409;28;20060;-80
2022/09/27 08:44:35;;;;;;;5.75;1.33;;;10.50;99.90;;;;;;5016885;28;20728;-81
2022/09/27 08:47:11;;;;;;;2.35;1.50;;;10.80;99.90;;;;;;5020271;28;20053;-82
2022/09/27 08:50:02;;;;;;;2.03;1.00;;;11.00;99.90;;;;;;5006977;28;20139;-79
2022/09/27 08:52:45;;;;;;;4.65;1.00;;;11.30;99.90;;;;;;5020060;28;20061;-83
2022/09/27 08:55:38;;;;;;;3.35;1.25;;;11.50;99.90;;;;;;5001770;28;20041;-79
2022/09/27 08:58:32;;;;;;;2.38;0.98;;;11.50;99.90;;;;;;5027174;28;20045;-78
2022/09/27 09:01:03;;;;;;;2.20;1.00;;;11.50;99.90;;;;;;5001852;28;20297;-79
2022/09/27 09:03:35;;;;;;;3.17;1.10;;;11.50;99.90;;;;;;5003391;28;20041;-80
2022/09/27 09:06:24;;;;;;;2.92;1.00;;;11.50;99.90;;;;;;5005168;28;20033;-81
2022/09/27 09:09:12;;;;;;;5.47;0.82;;;11.40;99.90;;;;;;4987232;28;20037;-79
2022/09/27 09:14:52;;;;;;;3.65;1.27;;;11.40;99.90;;;;;;5018538;28;20081;-79
2022/09/27 09:17:43;;;;;;;3.67;1.45;;;11.40;99.90;;;;;;5004052;28;20046;-78
2022/09/27 09:20:33;;;;;;;8.23;2.20;;;11.50;99.90;;;;;;5019449;28;20127;-79
2022/09/27 09:23:37;;;;;;;2.45;1.17;;;11.60;99.90;;;;;;5020388;28;20045;-80
2022/09/27 09:26:28;;;;;;;2.10;1.00;;;11.80;99.90;;;;;;5005371;28;20498;-79
2022/09/27 09:29:20;;;;;;;1.50;0.70;;;12.10;99.90;;;;;;5018739;28;20107;-80
2022/09/27 09:32:29;;;;;;;2.93;0.80;;;12.20;99.90;;;;;;4978612;28;20045;-80
2022/09/27 09:35:05;;;;;;;2.33;0.77;;;12.20;99.90;;;;;;5020678;28;20886;-80
2022/09/27 09:37:45;;;;;;;0.90;0.55;;;12.30;99.90;;;;;;5019858;28;20037;-78
2022/09/27 09:40:23;;;;;;;0.65;0.45;;;12.40;99.90;;;;;;5004834;28;20041;-79
2022/09/27 09:42:59;;;;;;;2.08;0.70;;;12.50;99.90;;;;;;5002583;28;20053;-80
2022/09/27 09:45:37;;;;;;;1.83;0.80;;;12.70;99.90;;;;;;4984319;28;20048;-80
2022/09/27 09:48:10;;;;;;;3.33;1.00;;;12.90;99.90;;;;;;5007220;28;20487;-80
2022/09/27 09:50:42;;;;;;;3.22;0.90;;;13.10;99.90;;;;;;5006257;28;20044;-80
2022/09/27 09:53:25;;;;;;;4.90;1.08;;;13.10;99.90;;;;;;4985461;28;20038;-81
2022/09/27 09:55:57;;;;;;;3.10;0.80;;;13.20;99.90;;;;;;4997709;28;20116;-80
2022/09/27 09:58:29;;;;;;;3.72;0.95;;;13.10;99.90;;;;;;4988044;28;20045;-79
2022/09/27 10:01:10;;;;;;;3.42;1.35;;;12.80;99.90;;;;;;4986237;28;20206;-77
2022/09/27 10:03:36;;;;;;;4.68;1.27;;;12.50;99.90;;;;;;4998182;28;20168;-78
2022/09/27 10:06:02;;;;;;;1.70;0.85;;;12.20;99.90;;;;;;5000312;28;20128;-77
2022/09/27 10:08:28;;;;;;;1.55;1.00;;;11.90;99.90;;;;;;5006893;28;20049;-80
2022/09/27 10:10:53;;;;;;;1.13;0.90;;;11.80;99.90;;;;;;4967123;28;20094;-79
2022/09/27 10:13:21;;;;;;;4.32;0.90;;;11.50;99.90;;;;;;4989342;28;20038;-79
2022/09/27 10:15:59;;;;;;;1.73;0.70;;;11.40;99.90;;;;;;5003898;28;20104;-79
2022/09/27 10:18:27;;;;;;;1.08;0.82;;;11.30;99.90;;;;;;5010680;28;20488;-79
2022/09/27 10:20:58;;;;;;;2.10;0.80;;;11.20;99.90;;;;;;4983205;28;20045;-80
2022/09/27 10:23:25;;;;;;;2.20;0.85;;;11.10;99.90;;;;;;5011528;28;20053;-80
2022/09/27 10:25:57;;;;;;;1.65;0.70;;;11.00;99.90;;;;;;5002505;28;20034;-78
2022/09/27 10:28:32;;;;;;;1.38;1.10;;;10.90;99.90;;;;;;5004819;28;20050;-78
2022/09/27 10:31:05;;;;;;;3.40;0.98;;;10.90;99.90;;;;;;4984587;28;20081;-79
2022/09/27 10:33:31;;;;;;;2.63;0.80;;;11.00;99.90;;;;;;5009270;28;20046;-78
2022/09/27 10:35:58;;;;;;;2.50;1.10;;;11.00;99.90;;;;;;4988882;28;20041;-79
2022/09/27 10:38:27;;;;;;;3.35;1.23;;;11.10;99.90;;;;;;4983789;28;20353;-80
2022/09/27 10:40:55;;;;;;;1.48;0.60;;;11.30;99.90;;;;;;4968804;28;20518;-79
2022/09/27 10:43:33;;;;;;;0.82;0.70;;;11.50;99.90;;;;;;5021906;28;20481;-80
2022/09/27 10:46:19;;;;;;;3.67;0.82;;;11.80;99.90;;;;;;5024383;28;20100;-80
2022/09/27 10:48:45;;;;;;;1.02;0.47;;;12.00;99.90;;;;;;5024094;28;20050;-80
2022/09/27 10:51:37;;;;;;;1.17;0.70;;;12.10;99.90;;;;;;5012869;28;20115;-79
2022/09/27 10:54:04;;;;;;;1.25;0.57;;;12.20;99.90;;;;;;5011287;28;20049;-79
2022/09/27 10:56:32;;;;;;;3.10;0.68;;;12.20;99.90;;;;;;5011148;28;20037;-79
2022/09/27 10:59:01;;;;;;;3.78;0.85;;;12.20;99.90;;;;;;5019155;28;20076;-79
2022/09/27 11:01:49;;;;;;;4.68;1.17;;;12.20;99.90;;;;;;5027822;28;20100;-80
2022/09/27 11:04:35;;;;;;;1.00;0.85;;;12.20;99.90;;;;;;5014279;28;20052;-79
2022/09/27 11:07:15;;;;;;;2.58;0.88;;;12.30;99.90;;;;;;5028663;28;20087;-79
2022/09/27 11:09:45;;;;;;;1.00;0.82;;;12.40;99.90;;;;;;5024350;28;20041;-80
2022/09/27 11:12:12;;;;;;;2.70;0.90;;;12.40;99.90;;;;;;5011625;28;20041;-80
2022/09/27 11:14:39;;;;;;;3.38;0.68;;;12.40;99.90;;;;;;5023699;28;20103;-79
2022/09/27 11:17:08;;;;;;;3.13;0.73;;;12.40;99.90;;;;;;5028362;28;20042;-81
2022/09/27 11:19:37;;;;;;;4.43;0.93;;;12.40;99.90;;;;;;5022700;28;20041;-80
2022/09/27 11:22:24;;;;;;;3.65;0.93;;;12.40;99.90;;;;;;5030568;28;20084;-81
2022/09/27 11:25:02;;;;;;;0.55;0.40;;;12.60;99.90;;;;;;5029439;28;20124;-80
2022/09/27 11:28:03;;;;;;;0.93;0.40;;;12.60;99.90;;;;;;5026940;28;20033;-80
2022/09/27 11:30:54;;;;;;;1.85;0.60;;;12.50;99.90;;;;;;5024908;28;20057;-81
2022/09/27 11:33:30;;;;;;;6.25;1.92;;;12.40;99.90;;;;;;5026585;28;20088;-81
2022/09/27 11:36:21;;;;;;;4.38;0.70;;;12.20;99.90;;;;;;4992945;28;20044;-80
2022/09/27 11:38:56;;;;;;;1.25;0.47;;;12.10;99.90;;;;;;5022657;28;20065;-79
2022/09/27 11:41:58;;;;;;;0.50;0.50;;;12.00;99.90;;;;;;4998925;28;20452;-79
2022/09/27 11:44:52;;;;;;;1.77;0.50;;;11.90;99.90;;;;;;5006056;28;20052;-80
2022/09/27 11:47:43;;;;;;;4.65;0.65;;;11.70;99.90;;;;;;5006726;28;20442;-80
2022/09/27 11:50:12;;;;;;;3.42;0.60;;;11.60;99.90;;;;;;4989949;28;20070;-80
2022/09/27 11:53:18;;;;;;;0.63;0.40;;;11.50;99.90;;;;;;4999631;28;20070;-79
2022/09/27 11:55:54;;;;;;;1.17;0.30;;;11.40;99.90;;;;;;5004028;28;20077;-76
2022/09/27 11:58:50;;;;;;;3.17;0.80;;;11.30;99.90;;;;;;5010871;28;20129;-79
2022/09/27 12:01:51;;;;;;;2.58;0.85;;;10.90;99.90;;;;;;5007741;28;20046;-81
2022/09/27 12:04:42;;;;;;;2.25;0.68;;;10.60;99.90;;;;;;4987021;28;20403;-80
2022/09/27 12:07:21;;;;;;;0.63;0.55;;;10.30;99.90;;;;;;4962911;28;20141;-80
2022/09/27 12:09:56;;;;;;;0.70;0.35;;;10.20;99.90;;;;;;4971565;28;20121;-80
2022/09/27 12:12:44;;;;;;;2.60;0.90;;;10.20;99.90;;;;;;4974995;28;20042;-82
2022/09/27 12:15:20;;;;;;;2.28;0.63;;;10.20;99.90;;;;;;4971988;28;20124;-81
2022/09/27 12:17:50;;;;;;;2.00;0.70;;;10.20;99.90;;;;;;5009456;28;20045;-82
2022/09/27 12:20:22;;;;;;;1.25;0.55;;;10.20;99.90;;;;;;5006425;28;20234;-82
2022/09/27 12:22:50;;;;;;;1.67;0.70;;;10.10;99.90;;;;;;4976068;28;20138;-81
2022/09/27 12:25:17;;;;;;;4.97;0.73;;;10.20;99.90;;;;;;4987843;28;20053;-81
2022/09/27 12:27:52;;;;;;;3.03;0.85;;;10.20;99.90;;;;;;4975397;28;20033;-81
2022/09/27 12:30:18;;;;;;;3.33;0.63;;;10.40;99.90;;;;;;4973276;28;20506;-81
2022/09/27 12:33:05;;;;;;;2.30;0.70;;;10.60;99.90;;;;;;4970803;28;20041;-80
2022/09/27 12:35:39;;;;;;;1.13;0.60;;;10.80;99.90;;;;;;5004425;28;20061;-80
2022/09/27 12:38:18;;;;;;;0.45;0.43;;;11.00;99.90;;;;;;4971568;28;20494;-79
2022/09/27 12:40:49;;;;;;;2.33;0.77;;;11.10;99.90;;;;;;4984067;28;20490;-81
2022/09/27 12:43:26;;;;;;;2.58;1.00;;;11.00;99.90;;;;;;5022073;28;20037;-80
2022/09/27 12:46:23;;;;;;;2.15;0.98;;;11.00;99.90;;;;;;5028929;28;20037;-80
2022/09/27 12:48:59;;;;;;;1.80;0.73;;;11.00;99.90;;;;;;4987981;28;20040;-78
2022/09/27 12:51:45;;;;;;;2.97;1.02;;;11.00;99.90;;;;;;5030415;28;20049;-78
2022/09/27 12:54:48;;;;;;;3.22;1.10;;;10.90;99.90;;;;;;5023158;28;20070;-80
2022/09/27 12:57:35;;;;;;;2.72;0.90;;;10.90;99.90;;;;;;4991307;28;20056;-79
2022/09/27 13:00:13;;;;;;;2.20;0.95;;;10.80;99.90;;;;;;5029756;28;20060;-79
2022/09/27 13:02:39;;;;;;;1.25;0.70;;;10.80;99.90;;;;;;5022641;28;20200;-81
2022/09/27 13:05:05;;;;;;;3.33;0.90;;;10.90;99.90;;;;;;4999922;28;20084;-83
2022/09/27 13:07:45;;;;;;;2.72;1.00;;;11.00;99.90;;;;;;5007936;28;20549;-80
2022/09/27 13:10:44;;;;;;;4.28;0.70;;;11.20;99.90;;;;;;5027696;28;20069;-80
2022/09/27 13:13:12;;;;;;;0.40;0.40;;;11.40;99.90;;;;;;4987451;28;20037;-82
2022/09/27 13:15:39;;;;;;;0.40;0.40;;;11.60;99.90;;;;;;5024522;28;20045;-81
2022/09/27 13:18:27;;;;;;;1.75;0.70;;;11.70;99.90;;;;;;5010674;28;20407;-83
2022/09/27 13:20:54;;;;;;;2.33;0.70;;;11.70;99.90;;;;;;5013283;28;20077;-83
2022/09/27 13:23:20;;;;;;;2.42;0.85;;;11.60;99.90;;;;;;5028110;28;20041;-82
2022/09/27 13:26:18;;;;;;;5.88;1.30;;;11.40;99.90;;;;;;5029369;28;20049;-83
2022/09/27 13:28:47;;;;;;;4.55;0.98;;;11.40;99.90;;;;;;5008585;28;20120;-83
2022/09/27 13:31:13;;;;;;;2.75;0.73;;;11.40;99.90;;;;;;5010875;28;20088;-84